Time;durP1;ratioP1;P1;durP2;ratioP2;P2;SDS_P1;SDS_P2;PMS_P1;PMS_P2;Temp;Humidity;BMP_temperature;BMP_pressure;BME280_temperature;BME280_humidity;BME280_pressure;Samples;Min_cycle;Max_cycle;Signal;HPM_P1;HPM_P2
2022/08/27 00:00:40;;;;;;;6.50;2.20;;;18.50;99.90;;;;;;5031660;28;20411;-67
2022/08/27 00:03:06;;;;;;;6.70;1.90;;;18.50;99.90;;;;;;5031815;28;20041;-67
2022/08/27 00:05:31;;;;;;;5.00;1.77;;;18.50;99.90;;;;;;5030808;28;20042;-67
2022/08/27 00:07:57;;;;;;;8.38;2.33;;;18.40;99.90;;;;;;5031672;28;20116;-67
2022/08/27 00:10:26;;;;;;;7.07;2.35;;;18.40;99.90;;;;;;4995623;28;1018205;-67
2022/08/27 00:12:54;;;;;;;6.00;2.30;;;18.40;99.90;;;;;;5031115;28;20677;-67
2022/08/27 00:15:20;;;;;;;6.70;1.90;;;18.40;99.90;;;;;;5030806;28;20033;-67
2022/08/27 00:17:46;;;;;;;6.78;2.05;;;18.40;99.90;;;;;;5032669;28;20099;-67
2022/08/27 00:20:15;;;;;;;6.05;2.20;;;18.40;99.90;;;;;;5032557;28;20029;-67
2022/08/27 00:22:41;;;;;;;8.48;2.38;;;18.40;99.90;;;;;;5032222;28;20525;-67
2022/08/27 00:25:07;;;;;;;2.45;1.63;;;18.40;99.90;;;;;;5030802;28;20043;-67
2022/08/27 00:27:32;;;;;;;5.30;1.77;;;18.30;99.90;;;;;;5032254;28;20453;-67
2022/08/27 00:29:58;;;;;;;5.65;1.88;;;18.30;99.90;;;;;;5031213;28;20045;-67
2022/08/27 00:32:24;;;;;;;6.40;1.90;;;18.20;99.90;;;;;;5032242;28;20065;-67
2022/08/27 00:34:51;;;;;;;5.05;1.80;;;18.20;99.90;;;;;;5029757;28;20038;-67
2022/08/27 00:37:17;;;;;;;8.85;2.25;;;18.20;99.90;;;;;;5032099;28;20175;-67
2022/08/27 00:39:42;;;;;;;7.20;2.20;;;18.10;99.90;;;;;;5032034;28;20116;-67
2022/08/27 00:42:08;;;;;;;4.70;2.10;;;18.10;99.90;;;;;;5031783;28;20038;-67
2022/08/27 00:44:35;;;;;;;8.70;2.20;;;18.10;99.90;;;;;;5030340;28;20054;-67
2022/08/27 00:47:06;;;;;;;9.80;2.60;;;18.10;99.90;;;;;;5031982;28;20052;-67
2022/08/27 00:50:04;;;;;;;11.02;2.50;;;18.10;99.90;;;;;;5031870;28;20045;-67
2022/08/27 00:52:40;;;;;;;7.93;2.10;;;18.10;99.90;;;;;;5009334;28;20553;-67
2022/08/27 00:55:13;;;;;;;6.07;2.22;;;18.00;99.90;;;;;;5009378;28;20139;-67
2022/08/27 00:57:42;;;;;;;6.28;2.10;;;18.00;99.90;;;;;;5009520;28;20408;-67
2022/08/27 01:00:11;;;;;;;8.15;2.50;;;18.00;99.90;;;;;;5009511;28;20073;-67
2022/08/27 01:02:36;;;;;;;5.90;1.88;;;18.00;99.90;;;;;;5009287;28;20389;-67
2022/08/27 01:05:07;;;;;;;7.82;2.05;;;18.00;99.90;;;;;;5008987;28;20045;-67
2022/08/27 01:07:36;;;;;;;8.00;2.05;;;18.00;99.90;;;;;;5009268;28;20033;-67
2022/08/27 01:10:05;;;;;;;11.27;2.63;;;18.00;99.90;;;;;;5009193;28;20047;-67
2022/08/27 01:12:32;;;;;;;8.60;2.45;;;18.00;99.90;;;;;;5009150;28;20038;-67
2022/08/27 01:15:00;;;;;;;8.60;2.17;;;18.00;99.90;;;;;;5008786;28;20443;-67
2022/08/27 01:17:26;;;;;;;13.27;2.22;;;17.90;99.90;;;;;;4992678;28;20050;-67
2022/08/27 01:19:55;;;;;;;6.18;2.30;;;17.90;99.90;;;;;;5009141;28;20042;-67
2022/08/27 01:22:42;;;;;;;6.25;2.30;;;17.90;99.90;;;;;;4992589;28;20096;-67
2022/08/27 01:25:11;;;;;;;6.40;2.40;;;17.90;99.90;;;;;;5008857;28;20073;-67
2022/08/27 01:27:39;;;;;;;5.03;2.20;;;17.80;99.90;;;;;;5015799;28;20041;-67
2022/08/27 01:30:08;;;;;;;7.40;2.33;;;17.80;99.90;;;;;;5029837;28;20069;-67
2022/08/27 01:32:36;;;;;;;8.88;2.33;;;17.80;99.90;;;;;;5031243;28;20399;-67
2022/08/27 01:35:05;;;;;;;8.20;2.58;;;17.80;99.90;;;;;;5030916;28;20037;-67
2022/08/27 01:37:33;;;;;;;7.97;2.60;;;17.80;99.90;;;;;;5031162;28;20048;-67
2022/08/27 01:39:59;;;;;;;3.55;2.00;;;17.80;99.90;;;;;;5031109;28;20096;-67
2022/08/27 01:42:35;;;;;;;5.05;2.17;;;17.80;99.90;;;;;;5030841;28;20041;-67
2022/08/27 01:45:34;;;;;;;5.07;2.42;;;17.90;99.90;;;;;;5030736;28;20069;-67
2022/08/27 01:48:01;;;;;;;3.53;1.85;;;17.80;99.90;;;;;;5031054;28;20390;-67
2022/08/27 01:50:34;;;;;;;5.07;2.17;;;17.80;99.90;;;;;;5030946;28;20445;-67
2022/08/27 01:53:06;;;;;;;4.45;2.30;;;17.80;99.90;;;;;;5030672;28;20053;-67
2022/08/27 01:55:32;;;;;;;5.13;2.55;;;17.80;99.90;;;;;;5030723;28;20045;-67
2022/08/27 01:57:58;;;;;;;6.82;2.05;;;17.80;99.90;;;;;;5013217;28;20033;-67
2022/08/27 02:00:31;;;;;;;6.40;2.33;;;17.70;99.90;;;;;;5030835;28;20410;-67
2022/08/27 02:02:57;;;;;;;8.63;2.38;;;17.80;99.90;;;;;;5029738;28;20136;-67
2022/08/27 02:05:24;;;;;;;5.72;2.25;;;17.70;99.90;;;;;;5030498;28;20037;-67
2022/08/27 02:07:50;;;;;;;5.65;2.70;;;17.70;99.90;;;;;;5029694;28;20140;-67
2022/08/27 02:10:22;;;;;;;4.30;1.83;;;17.70;99.90;;;;;;5029785;28;20399;-67
2022/08/27 02:12:48;;;;;;;4.85;2.20;;;17.70;99.90;;;;;;5030607;28;20506;-67
2022/08/27 02:15:14;;;;;;;5.35;2.00;;;17.70;99.90;;;;;;5029490;28;20084;-67
2022/08/27 02:17:39;;;;;;;7.32;2.10;;;17.70;99.90;;;;;;5030689;28;20034;-67
2022/08/27 02:20:08;;;;;;;9.85;1.80;;;17.70;99.90;;;;;;5030647;28;20038;-67
2022/08/27 02:22:34;;;;;;;9.32;2.17;;;17.60;99.90;;;;;;5031124;28;20046;-67
2022/08/27 02:25:00;;;;;;;6.20;2.22;;;17.70;99.90;;;;;;5029679;28;20048;-67
2022/08/27 02:27:26;;;;;;;6.97;2.17;;;17.70;99.90;;;;;;5029748;28;20128;-67
2022/08/27 02:29:54;;;;;;;4.95;2.22;;;17.70;99.90;;;;;;5030953;28;20117;-67
2022/08/27 02:32:20;;;;;;;8.15;2.05;;;17.70;99.90;;;;;;5029192;28;20491;-67
2022/08/27 02:34:46;;;;;;;7.50;2.30;;;17.60;99.90;;;;;;5030299;28;20076;-67
2022/08/27 02:37:12;;;;;;;8.50;2.00;;;17.60;99.90;;;;;;5012851;28;20495;-67
2022/08/27 02:39:37;;;;;;;5.93;1.80;;;17.60;99.90;;;;;;5030394;28;20033;-67
2022/08/27 02:42:03;;;;;;;5.10;2.00;;;17.50;99.90;;;;;;5030495;28;20045;-67
2022/08/27 02:44:30;;;;;;;5.40;2.10;;;17.60;99.90;;;;;;5030197;28;20037;-67
2022/08/27 02:46:56;;;;;;;6.38;2.10;;;17.60;99.90;;;;;;5029373;28;20061;-67
2022/08/27 02:49:22;;;;;;;6.93;2.03;;;17.60;99.90;;;;;;5030272;28;20045;-67
2022/08/27 02:51:53;;;;;;;5.70;1.88;;;17.50;99.90;;;;;;5030522;28;20410;-67
2022/08/27 02:54:18;;;;;;;5.65;2.03;;;17.60;99.90;;;;;;5028696;28;20119;-67
2022/08/27 02:56:44;;;;;;;4.70;1.60;;;17.60;99.90;;;;;;5031314;28;20080;-67
2022/08/27 02:59:09;;;;;;;7.05;1.77;;;17.50;99.90;;;;;;5032670;28;20041;-67
2022/08/27 03:01:35;;;;;;;8.15;2.08;;;17.50;99.90;;;;;;5032536;28;20041;-67
2022/08/27 03:04:01;;;;;;;8.07;1.85;;;17.50;99.90;;;;;;5033608;28;20290;-67
2022/08/27 03:06:27;;;;;;;8.45;2.10;;;17.50;99.90;;;;;;5033985;28;20729;-67
2022/08/27 03:08:52;;;;;;;4.55;2.00;;;17.50;99.90;;;;;;5033734;28;20515;-67
2022/08/27 03:11:18;;;;;;;7.60;1.92;;;17.40;99.90;;;;;;5032494;28;20065;-67
2022/08/27 03:13:44;;;;;;;4.80;1.95;;;17.50;99.90;;;;;;5033566;28;20054;-67
2022/08/27 03:16:09;;;;;;;5.38;2.08;;;17.50;99.90;;;;;;5033544;28;20111;-67
2022/08/27 03:18:35;;;;;;;5.35;1.88;;;17.50;99.90;;;;;;5032572;28;20053;-67
2022/08/27 03:21:01;;;;;;;6.25;2.03;;;17.50;99.90;;;;;;5033634;28;20045;-67
2022/08/27 03:23:31;;;;;;;6.68;2.28;;;17.50;99.90;;;;;;5032384;28;20457;-67
2022/08/27 03:25:59;;;;;;;6.53;2.13;;;17.40;99.90;;;;;;5033254;28;20048;-67
2022/08/27 03:28:30;;;;;;;6.25;2.03;;;17.40;99.90;;;;;;5033575;28;20041;-67
2022/08/27 03:31:00;;;;;;;5.00;2.30;;;17.40;99.90;;;;;;5033250;28;20510;-67
2022/08/27 03:33:29;;;;;;;8.82;2.05;;;17.40;99.90;;;;;;5033428;28;20041;-67
2022/08/27 03:35:55;;;;;;;4.18;1.80;;;17.30;99.90;;;;;;5031686;28;20128;-67
2022/08/27 03:38:21;;;;;;;4.85;1.92;;;17.30;99.90;;;;;;5033339;28;20112;-67
2022/08/27 03:40:47;;;;;;;7.03;1.98;;;17.30;99.90;;;;;;5033098;28;20037;-67
2022/08/27 03:43:15;;;;;;;7.93;2.28;;;17.20;99.90;;;;;;5033080;28;20037;-67
2022/08/27 03:45:45;;;;;;;4.93;1.85;;;17.30;99.90;;;;;;5033092;28;20049;-67
2022/08/27 03:48:12;;;;;;;7.43;2.03;;;17.30;99.90;;;;;;5033269;28;20049;-67
2022/08/27 03:50:39;;;;;;;6.10;2.20;;;17.20;99.90;;;;;;5032224;28;20184;-67
2022/08/27 03:53:04;;;;;;;8.35;1.85;;;17.20;99.90;;;;;;5032922;28;20049;-67
2022/08/27 03:55:30;;;;;;;5.40;1.75;;;17.20;99.90;;;;;;5032653;28;20466;-67
2022/08/27 03:57:56;;;;;;;5.50;2.28;;;17.10;99.90;;;;;;5032743;28;20042;-67
2022/08/27 04:00:23;;;;;;;7.80;2.20;;;17.10;99.90;;;;;;5033028;28;20041;-67
2022/08/27 04:02:49;;;;;;;3.55;1.90;;;17.10;99.90;;;;;;5032830;28;20037;-67
2022/08/27 04:05:15;;;;;;;3.85;2.03;;;17.10;99.90;;;;;;5032635;28;20056;-67
2022/08/27 04:07:41;;;;;;;5.05;2.03;;;17.10;99.90;;;;;;5032023;28;20391;-67
2022/08/27 04:10:08;;;;;;;7.85;2.38;;;17.10;99.90;;;;;;5032066;28;20037;-67
2022/08/27 04:12:34;;;;;;;10.02;2.10;;;17.10;99.90;;;;;;5031140;28;20129;-67
2022/08/27 04:15:00;;;;;;;5.78;2.03;;;17.10;99.90;;;;;;5031000;28;20120;-67
2022/08/27 04:17:25;;;;;;;5.07;1.98;;;17.10;99.90;;;;;;5032749;28;20120;-67
2022/08/27 04:19:51;;;;;;;7.72;2.13;;;17.10;99.90;;;;;;5031170;28;20037;-67
2022/08/27 04:22:19;;;;;;;8.25;2.53;;;17.00;99.90;;;;;;5031122;28;20044;-67
2022/08/27 04:24:45;;;;;;;6.63;2.25;;;17.00;99.90;;;;;;5032056;28;20044;-67
2022/08/27 04:27:13;;;;;;;5.22;2.40;;;17.10;99.90;;;;;;5030940;28;20053;-67
2022/08/27 04:29:39;;;;;;;8.60;2.13;;;17.00;99.90;;;;;;5032262;28;20601;-67
2022/08/27 04:32:05;;;;;;;4.80;1.83;;;17.00;99.90;;;;;;5031136;28;20045;-67
2022/08/27 04:34:31;;;;;;;4.75;2.00;;;17.10;99.90;;;;;;5030660;28;20048;-67
2022/08/27 04:36:58;;;;;;;5.03;2.10;;;17.00;99.90;;;;;;5030317;28;20045;-67
2022/08/27 04:39:25;;;;;;;6.97;2.00;;;17.10;99.90;;;;;;5029118;28;20065;-67
2022/08/27 04:41:53;;;;;;;7.07;2.10;;;17.00;99.90;;;;;;5029023;28;20072;-68
2022/08/27 04:44:19;;;;;;;4.45;2.10;;;17.00;99.90;;;;;;5030108;28;20480;-67
2022/08/27 04:46:46;;;;;;;4.88;2.20;;;17.00;99.90;;;;;;5031572;28;20080;-67
2022/08/27 04:49:13;;;;;;;7.22;2.42;;;17.00;99.90;;;;;;5031395;28;20045;-67
2022/08/27 04:51:39;;;;;;;4.75;2.15;;;17.00;99.90;;;;;;5031229;28;20041;-67
2022/08/27 04:54:06;;;;;;;11.45;2.88;;;17.00;99.90;;;;;;5030195;28;20056;-67
2022/08/27 04:56:32;;;;;;;7.88;1.98;;;17.00;99.90;;;;;;5031911;28;20038;-67
2022/08/27 04:59:00;;;;;;;6.57;1.98;;;17.00;99.90;;;;;;5031860;28;20099;-67
2022/08/27 05:01:27;;;;;;;4.78;2.35;;;17.00;99.90;;;;;;5031710;28;20080;-67
2022/08/27 05:03:54;;;;;;;5.97;2.47;;;16.90;99.90;;;;;;5030118;28;20186;-67
2022/08/27 05:06:21;;;;;;;3.95;2.08;;;16.90;99.90;;;;;;5031581;28;20037;-67
2022/08/27 05:08:50;;;;;;;7.00;2.42;;;16.90;99.90;;;;;;5030039;28;20114;-67
2022/08/27 05:11:18;;;;;;;7.13;2.00;;;16.80;99.90;;;;;;5031617;28;20049;-67
2022/08/27 05:13:45;;;;;;;5.95;2.22;;;16.80;99.90;;;;;;5031414;28;20076;-67
2022/08/27 05:16:14;;;;;;;7.35;2.20;;;16.90;99.90;;;;;;5031514;28;20042;-67
2022/08/27 05:18:41;;;;;;;6.43;1.95;;;16.80;99.90;;;;;;5031457;28;20034;-67
2022/08/27 05:21:07;;;;;;;10.45;2.05;;;16.90;99.90;;;;;;5029696;28;20045;-67
2022/08/27 05:23:34;;;;;;;9.43;2.42;;;16.80;99.90;;;;;;5031170;28;20061;-67
2022/08/27 05:25:59;;;;;;;7.10;2.40;;;16.90;99.90;;;;;;5031036;28;20052;-67
2022/08/27 05:28:27;;;;;;;9.02;2.35;;;16.90;99.90;;;;;;5031450;28;20041;-68
2022/08/27 05:31:01;;;;;;;9.88;2.10;;;17.10;99.90;;;;;;5031329;28;20069;-67
2022/08/27 05:33:27;;;;;;;6.63;2.03;;;17.20;99.90;;;;;;5031068;28;20076;-67
2022/08/27 05:35:55;;;;;;;8.27;3.30;;;17.30;99.90;;;;;;5030777;28;20065;-67
2022/08/27 05:38:21;;;;;;;5.85;2.00;;;17.40;99.90;;;;;;5029667;28;20057;-67
2022/08/27 05:40:47;;;;;;;3.33;1.90;;;17.50;99.90;;;;;;5031177;28;20099;-67
2022/08/27 05:43:16;;;;;;;10.05;2.60;;;17.50;99.90;;;;;;5031033;28;20045;-67
2022/08/27 05:45:43;;;;;;;6.88;2.30;;;17.50;99.90;;;;;;5030872;28;20083;-67
2022/08/27 05:48:12;;;;;;;5.68;1.75;;;17.60;99.90;;;;;;5023256;28;20037;-67
2022/08/27 05:50:39;;;;;;;6.55;2.20;;;17.60;99.90;;;;;;5011257;28;20034;-66
2022/08/27 05:53:05;;;;;;;4.88;1.77;;;17.70;99.90;;;;;;5011191;28;20050;-67
2022/08/27 05:55:43;;;;;;;5.80;2.13;;;17.70;99.90;;;;;;5011019;28;20038;-67
2022/08/27 06:01:04;;;;;;;5.90;1.88;;;17.90;99.90;;;;;;5011014;28;20112;-66
2022/08/27 06:03:35;;;;;;;4.75;1.80;;;18.00;99.90;;;;;;5011203;28;20518;-66
2022/08/27 06:06:07;;;;;;;7.13;1.60;;;18.10;99.90;;;;;;5010681;28;20045;-67
2022/08/27 06:08:32;;;;;;;6.75;1.70;;;18.10;99.90;;;;;;5010912;28;20168;-67
2022/08/27 06:11:02;;;;;;;5.30;1.60;;;18.10;99.90;;;;;;5011071;28;20042;-66
2022/08/27 06:13:29;;;;;;;6.97;2.00;;;18.20;99.90;;;;;;5010966;28;20128;-66
2022/08/27 06:16:07;;;;;;;5.60;1.48;;;18.20;99.90;;;;;;5011616;28;20129;-66
2022/08/27 06:18:33;;;;;;;3.65;1.70;;;18.30;99.90;;;;;;5011694;28;20041;-67
2022/08/27 06:20:59;;;;;;;7.88;2.10;;;18.40;99.90;;;;;;5011201;28;20044;-66
2022/08/27 06:23:25;;;;;;;4.75;1.60;;;18.40;99.90;;;;;;5010969;28;20042;-66
2022/08/27 06:25:51;;;;;;;6.00;1.55;;;18.40;99.90;;;;;;5010552;28;20044;-66
2022/08/27 06:28:20;;;;;;;3.40;1.50;;;18.40;99.90;;;;;;4993157;28;20411;-67
2022/08/27 06:30:46;;;;;;;5.32;1.55;;;18.60;99.90;;;;;;5010883;28;20053;-66
2022/08/27 06:33:12;;;;;;;11.73;2.10;;;18.60;99.90;;;;;;5014128;28;20049;-67
2022/08/27 06:35:37;;;;;;;17.85;2.10;;;18.60;99.90;;;;;;5014352;28;20428;-66
2022/08/27 06:38:03;;;;;;;4.93;1.77;;;18.70;99.90;;;;;;5014521;28;20393;-66
2022/08/27 06:40:29;;;;;;;6.45;1.60;;;18.70;99.90;;;;;;5014481;28;20034;-66
2022/08/27 06:42:54;;;;;;;3.63;1.85;;;18.60;99.90;;;;;;5014393;28;20116;-67
2022/08/27 06:45:20;;;;;;;7.15;1.90;;;18.60;99.90;;;;;;5014270;28;20052;-67
2022/08/27 06:47:45;;;;;;;6.90;1.50;;;18.60;99.90;;;;;;5014586;28;20053;-66
2022/08/27 06:50:11;;;;;;;3.30;1.80;;;18.50;99.90;;;;;;5013307;28;20404;-66
2022/08/27 06:52:37;;;;;;;5.18;1.48;;;18.50;99.90;;;;;;5014223;28;20113;-66
2022/08/27 06:55:03;;;;;;;6.57;1.77;;;18.60;99.90;;;;;;5013891;28;20402;-66
2022/08/27 06:57:29;;;;;;;7.95;1.80;;;18.60;99.90;;;;;;5013363;28;20034;-66
2022/08/27 06:59:54;;;;;;;5.45;1.90;;;18.60;99.90;;;;;;5014427;28;20044;-66
2022/08/27 07:02:20;;;;;;;4.85;1.80;;;18.60;99.90;;;;;;5012815;28;20411;-66
2022/08/27 07:04:46;;;;;;;6.80;1.58;;;18.50;99.90;;;;;;5013966;28;20055;-66
2022/08/27 07:07:12;;;;;;;7.13;1.90;;;18.50;99.90;;;;;;5013986;28;20042;-67
2022/08/27 07:09:38;;;;;;;9.50;2.05;;;18.60;99.90;;;;;;5024374;28;20116;-67
2022/08/27 07:12:04;;;;;;;5.65;2.05;;;18.50;99.90;;;;;;5028727;28;20091;-66
2022/08/27 07:14:30;;;;;;;5.78;2.03;;;18.60;99.90;;;;;;5022476;28;20057;-66
2022/08/27 07:16:55;;;;;;;5.15;1.90;;;18.60;99.90;;;;;;5022882;28;20052;-66
2022/08/27 07:19:21;;;;;;;7.28;1.80;;;18.70;99.90;;;;;;5016333;28;20081;-66
2022/08/27 07:21:47;;;;;;;9.70;1.98;;;18.60;99.90;;;;;;5012934;28;20042;-66
2022/08/27 07:24:13;;;;;;;5.95;1.75;;;18.70;99.90;;;;;;5012876;28;20076;-66
2022/08/27 07:26:42;;;;;;;7.03;1.70;;;18.70;99.90;;;;;;5013942;28;20042;-65
2022/08/27 07:29:09;;;;;;;4.20;1.70;;;18.70;99.90;;;;;;5013808;28;20048;-65
2022/08/27 07:31:35;;;;;;;5.88;1.60;;;18.80;99.90;;;;;;5013598;28;20061;-65
2022/08/27 07:34:02;;;;;;;10.65;1.83;;;18.80;99.90;;;;;;5011933;28;20629;-65
2022/08/27 07:36:28;;;;;;;4.90;1.60;;;18.80;99.90;;;;;;5013506;28;20042;-66
2022/08/27 07:38:53;;;;;;;7.43;1.88;;;18.80;99.90;;;;;;5013228;28;20415;-65
2022/08/27 07:41:19;;;;;;;4.75;1.65;;;18.90;99.90;;;;;;5013505;28;20084;-66
2022/08/27 07:46:30;;;;;;;4.20;1.40;;;19.00;99.90;;;;;;5013409;28;20128;-66
2022/08/27 07:48:56;;;;;;;5.68;1.30;;;19.00;99.90;;;;;;5013280;28;20077;-65
2022/08/27 07:51:24;;;;;;;7.47;1.70;;;19.10;99.90;;;;;;5012013;28;20120;-65
2022/08/27 07:53:50;;;;;;;7.60;1.88;;;19.10;99.90;;;;;;5012961;28;20407;-65
2022/08/27 07:56:16;;;;;;;6.07;1.67;;;19.10;99.90;;;;;;5013217;28;20091;-66
2022/08/27 07:58:42;;;;;;;7.32;1.70;;;19.10;99.90;;;;;;5013113;28;20491;-66
2022/08/27 08:01:08;;;;;;;3.15;1.58;;;19.00;99.90;;;;;;5012916;28;20048;-66
2022/08/27 08:03:34;;;;;;;8.10;1.75;;;19.10;99.90;;;;;;5012959;28;20042;-66
2022/08/27 08:06:11;;;;;;;7.53;2.17;;;19.20;99.90;;;;;;5012540;28;20061;-65
2022/08/27 08:08:39;;;;;;;5.57;1.80;;;19.30;99.90;;;;;;5012620;28;20054;-66
2022/08/27 08:11:10;;;;;;;4.88;1.25;;;19.30;99.90;;;;;;5012789;28;20046;-66
2022/08/27 08:13:35;;;;;;;4.45;1.63;;;19.40;99.90;;;;;;5011507;28;20052;-66
2022/08/27 08:16:01;;;;;;;7.93;1.60;;;19.40;99.90;;;;;;5012369;28;20060;-66
2022/08/27 08:18:27;;;;;;;6.65;1.77;;;19.40;99.90;;;;;;5012472;28;20034;-66
2022/08/27 08:20:59;;;;;;;8.82;1.67;;;19.50;99.90;;;;;;5012460;28;20484;-66
2022/08/27 08:23:25;;;;;;;;;;;19.60;99.90;;;;;;5013159;28;20623;-66
2022/08/27 08:25:51;;;;;;;5.35;1.55;;;19.70;99.90;;;;;;5012385;28;19968;-66
2022/08/27 08:28:17;;;;;;;13.65;1.85;;;19.70;99.90;;;;;;5012499;28;20038;-66
2022/08/27 08:30:43;;;;;;;6.35;1.75;;;19.70;99.90;;;;;;5012364;28;20046;-66
2022/08/27 08:33:08;;;;;;;11.05;1.80;;;19.60;99.90;;;;;;5012373;28;20042;-68
2022/08/27 08:35:37;;;;;;;17.67;2.33;;;19.50;99.90;;;;;;5012074;28;20044;-68
2022/08/27 08:38:03;;;;;;;10.02;1.60;;;19.50;99.90;;;;;;5011118;28;20129;-68
2022/08/27 08:40:39;;;;;;;8.18;1.67;;;19.50;99.90;;;;;;5012370;28;20125;-68
2022/08/27 08:43:09;;;;;;;5.93;1.50;;;19.50;99.90;;;;;;5011015;28;20056;-68
2022/08/27 08:45:38;;;;;;;7.03;1.50;;;19.50;99.90;;;;;;5011840;28;20423;-68
2022/08/27 08:48:13;;;;;;;6.75;1.55;;;19.50;99.90;;;;;;5012325;28;20045;-68
2022/08/27 08:50:57;;;;;;;7.97;1.90;;;19.50;99.90;;;;;;5012279;28;20384;-68
2022/08/27 08:53:29;;;;;;;5.57;1.58;;;19.50;99.90;;;;;;5012050;28;20052;-68
2022/08/27 08:56:06;;;;;;;6.67;1.97;;;19.50;99.90;;;;;;5009893;28;20124;-68
2022/08/27 08:58:48;;;;;;;8.38;1.52;;;19.70;99.90;;;;;;5012285;28;20265;-68
2022/08/27 09:01:19;;;;;;;8.00;2.23;;;19.80;99.90;;;;;;5010721;28;20090;-67
2022/08/27 09:03:57;;;;;;;9.60;1.65;;;19.80;99.90;;;;;;5011717;28;20056;-68
2022/08/27 09:06:37;;;;;;;5.43;1.35;;;19.80;99.90;;;;;;5011830;28;20041;-68
2022/08/27 09:09:18;;;;;;;11.35;1.50;;;19.80;99.90;;;;;;5011962;28;20088;-68
2022/08/27 09:12:05;;;;;;;6.97;1.40;;;19.90;99.90;;;;;;5011814;28;20129;-68
2022/08/27 09:14:50;;;;;;;8.07;1.73;;;19.80;99.90;;;;;;5011442;28;20050;-68
2022/08/27 09:17:17;;;;;;;3.42;1.30;;;19.80;99.90;;;;;;5010419;28;20049;-68
2022/08/27 09:19:42;;;;;;;6.28;1.48;;;19.80;99.90;;;;;;5011698;28;20522;-68
2022/08/27 09:22:27;;;;;;;6.22;1.95;;;20.00;99.90;;;;;;5010271;28;20033;-68
2022/08/27 09:25:14;;;;;;;7.53;1.95;;;19.90;99.90;;;;;;5011242;28;20049;-68
2022/08/27 09:27:41;;;;;;;9.75;1.92;;;19.80;99.90;;;;;;5010286;28;20049;-68
2022/08/27 09:30:17;;;;;;;4.88;1.33;;;19.80;99.90;;;;;;5011713;28;20038;-68
2022/08/27 09:32:43;;;;;;;9.00;1.73;;;19.80;99.90;;;;;;5011529;28;20049;-68
2022/08/27 09:35:12;;;;;;;9.18;1.58;;;19.80;99.90;;;;;;5011147;28;20034;-68
2022/08/27 09:37:41;;;;;;;4.45;1.63;;;19.80;99.90;;;;;;5011250;28;20046;-69
2022/08/27 09:40:25;;;;;;;4.40;1.38;;;19.80;99.90;;;;;;5011554;28;20112;-68
2022/08/27 09:42:54;;;;;;;9.43;2.25;;;19.80;99.90;;;;;;5018465;28;20042;-68
2022/08/27 09:45:28;;;;;;;9.35;1.33;;;19.80;99.90;;;;;;5019275;28;20534;-68
2022/08/27 09:48:03;;;;;;;5.32;1.30;;;19.80;99.90;;;;;;5019769;28;20040;-68
2022/08/27 09:50:35;;;;;;;10.65;1.60;;;19.80;99.90;;;;;;5021552;28;20048;-68
2022/08/27 09:53:01;;;;;;;;;;;19.80;99.90;;;;;;5021909;28;20124;-68
2022/08/27 09:55:33;;;;;;;8.10;1.67;;;19.90;99.90;;;;;;5020236;28;20353;-68
2022/08/27 09:58:00;;;;;;;6.40;1.40;;;19.80;99.90;;;;;;5019768;28;20447;-68
2022/08/27 10:00:37;;;;;;;7.10;1.90;;;19.90;99.90;;;;;;5019761;28;20049;-68
2022/08/27 10:03:04;;;;;;;6.97;1.50;;;20.00;99.90;;;;;;5021649;28;20069;-68
2022/08/27 10:05:41;;;;;;;5.70;1.50;;;20.10;99.90;;;;;;5021546;28;20048;-68
2022/08/27 10:08:20;;;;;;;6.50;1.50;;;20.20;99.90;;;;;;5026339;28;20033;-68
2022/08/27 10:10:54;;;;;;;2.65;1.15;;;20.30;99.90;;;;;;5026050;28;20587;-68
2022/08/27 10:13:22;;;;;;;5.85;1.27;;;20.20;99.90;;;;;;5026024;28;20033;-68
2022/08/27 10:15:54;;;;;;;6.10;1.20;;;20.30;99.90;;;;;;5024302;28;20441;-68
2022/08/27 10:18:45;;;;;;;5.50;1.57;;;20.30;99.90;;;;;;5022186;28;20097;-68
2022/08/27 10:21:16;;;;;;;4.45;1.30;;;20.40;99.90;;;;;;5025379;28;20159;-68
2022/08/27 10:24:19;;;;;;;7.97;1.40;;;20.30;99.90;;;;;;5013497;28;20049;-67
2022/08/27 10:27:10;;;;;;;8.30;1.50;;;20.30;99.90;;;;;;5015037;28;20053;-67
2022/08/27 10:29:45;;;;;;;11.55;1.77;;;20.30;99.90;;;;;;5014830;28;20057;-68
2022/08/27 10:33:06;;;;;;;4.50;1.23;;;20.30;99.90;;;;;;5013766;28;20060;-67
2022/08/27 10:35:40;;;;;;;6.28;1.52;;;20.20;99.90;;;;;;4978281;28;20054;-68
2022/08/27 10:38:20;;;;;;;4.57;1.30;;;20.30;99.90;;;;;;5014640;28;20141;-68
2022/08/27 10:40:52;;;;;;;5.10;1.00;;;20.40;99.90;;;;;;5014752;28;20422;-68
2022/08/27 10:43:56;;;;;;;5.10;1.35;;;20.60;99.90;;;;;;5014728;28;20044;-68
2022/08/27 10:46:46;;;;;;;10.20;1.42;;;20.50;99.90;;;;;;5013946;28;20046;-68
2022/08/27 10:49:25;;;;;;;4.70;1.30;;;20.60;99.90;;;;;;5013249;28;20052;-67
2022/08/27 10:52:22;;;;;;;6.43;1.25;;;20.70;99.90;;;;;;5014682;28;20123;-68
2022/08/27 10:54:59;;;;;;;10.93;1.92;;;20.80;99.90;;;;;;5006373;28;20516;-68
2022/08/27 10:58:16;;;;;;;8.18;1.27;;;20.90;99.90;;;;;;5014307;28;20488;-68
2022/08/27 11:00:45;;;;;;;12.20;1.63;;;20.80;99.90;;;;;;4970479;28;20503;-68
2022/08/27 11:03:37;;;;;;;7.28;1.50;;;20.80;99.90;;;;;;4996806;28;20049;-68
2022/08/27 11:06:30;;;;;;;8.68;1.50;;;20.70;99.90;;;;;;5004322;28;20088;-69
2022/08/27 11:09:18;;;;;;;8.43;1.75;;;20.70;99.90;;;;;;5012535;28;20061;-68
2022/08/27 11:11:59;;;;;;;8.52;1.60;;;20.70;99.90;;;;;;5013918;28;20532;-67
2022/08/27 11:14:54;;;;;;;9.02;1.70;;;20.70;99.90;;;;;;5013648;28;20085;-68
2022/08/27 11:17:29;;;;;;;15.98;2.28;;;20.70;99.90;;;;;;5009320;28;20500;-67
2022/08/27 11:20:12;;;;;;;7.65;1.77;;;20.80;99.90;;;;;;5012628;28;20492;-68
2022/08/27 11:22:52;;;;;;;9.73;1.60;;;20.80;99.90;;;;;;5013933;28;20052;-68
2022/08/27 11:25:20;;;;;;;6.55;1.55;;;20.80;99.90;;;;;;5013588;28;20046;-68
2022/08/27 11:27:50;;;;;;;2.78;1.23;;;20.90;99.90;;;;;;5013735;28;20069;-68
2022/08/27 11:30:40;;;;;;;7.40;1.67;;;20.90;99.90;;;;;;5013694;28;20099;-68
2022/08/27 11:33:30;;;;;;;5.50;1.20;;;20.90;99.90;;;;;;5013544;28;20096;-68
2022/08/27 11:36:36;;;;;;;7.97;1.48;;;21.10;99.90;;;;;;5013511;28;20046;-68
2022/08/27 11:39:36;;;;;;;5.15;1.48;;;21.10;99.90;;;;;;5013765;28;20065;-68
2022/08/27 11:42:17;;;;;;;11.20;1.85;;;21.30;99.90;;;;;;5012472;28;20050;-68
2022/08/27 11:44:45;;;;;;;6.50;1.40;;;21.10;99.90;;;;;;5013147;28;20069;-68
2022/08/27 11:47:22;;;;;;;8.68;1.58;;;21.40;99.90;;;;;;5013639;28;20049;-68
2022/08/27 11:49:51;;;;;;;5.72;1.38;;;21.30;99.90;;;;;;5013526;28;20040;-68
2022/08/27 11:52:37;;;;;;;8.43;1.50;;;21.20;99.90;;;;;;5011953;28;20045;-68
2022/08/27 11:55:24;;;;;;;11.43;1.75;;;21.20;99.90;;;;;;5011525;28;20575;-68
2022/08/27 11:58:04;;;;;;;8.07;1.65;;;21.20;99.90;;;;;;5013440;28;20042;-68
2022/08/27 12:00:37;;;;;;;10.13;1.67;;;21.40;99.90;;;;;;4995572;28;20038;-68
2022/08/27 12:03:17;;;;;;;9.50;1.40;;;21.30;99.90;;;;;;5013112;28;20038;-68
2022/08/27 12:05:47;;;;;;;6.28;1.30;;;21.30;99.90;;;;;;5012816;28;20115;-68
2022/08/27 12:08:22;;;;;;;7.45;1.73;;;21.30;99.90;;;;;;5012979;28;20042;-68
2022/08/27 12:11:09;;;;;;;6.35;1.60;;;21.40;99.90;;;;;;5011917;28;20050;-68
2022/08/27 12:14:05;;;;;;;6.78;1.25;;;21.50;99.90;;;;;;5012680;28;20096;-68
2022/08/27 12:17:14;;;;;;;6.32;1.55;;;21.40;99.90;;;;;;5011848;28;20373;-67
2022/08/27 12:20:13;;;;;;;11.43;1.58;;;21.40;99.90;;;;;;5001509;28;20049;-67
2022/08/27 12:23:38;;;;;;;6.35;1.40;;;21.30;99.90;;;;;;5012934;28;20041;-67
2022/08/27 12:26:13;;;;;;;4.65;1.40;;;21.50;99.90;;;;;;5012259;28;20046;-67
2022/08/27 12:28:38;;;;;;;7.38;1.40;;;21.30;99.90;;;;;;5012424;28;20116;-67
2022/08/27 12:31:05;;;;;;;10.82;1.60;;;21.30;99.90;;;;;;5012080;28;20049;-67
2022/08/27 12:33:44;;;;;;;7.13;1.48;;;21.30;99.90;;;;;;5011327;28;20097;-67
2022/08/27 12:36:16;;;;;;;5.28;1.38;;;21.30;99.90;;;;;;5012546;28;20045;-66
2022/08/27 12:38:47;;;;;;;9.82;1.70;;;21.40;99.90;;;;;;5012445;28;20041;-67
2022/08/27 12:41:24;;;;;;;8.47;1.43;;;21.60;99.90;;;;;;5012589;28;20120;-67
2022/08/27 12:44:00;;;;;;;9.20;1.50;;;21.50;99.90;;;;;;5012000;28;20758;-67
2022/08/27 12:46:27;;;;;;;5.85;1.13;;;21.40;99.90;;;;;;5012374;28;20048;-67
2022/08/27 12:48:59;;;;;;;6.72;1.25;;;21.40;99.90;;;;;;5012327;28;20045;-67
2022/08/27 12:51:30;;;;;;;7.95;1.45;;;21.50;99.90;;;;;;5011993;28;20088;-67
2022/08/27 12:54:30;;;;;;;7.40;1.27;;;21.70;99.90;;;;;;5012056;28;20058;-67
2022/08/27 12:57:01;;;;;;;6.32;1.30;;;21.80;99.90;;;;;;4994649;28;20049;-67
2022/08/27 12:59:39;;;;;;;11.23;1.65;;;21.80;99.90;;;;;;5012068;28;20050;-67
2022/08/27 13:02:13;;;;;;;5.63;1.17;;;21.90;99.90;;;;;;5012116;28;20049;-67
2022/08/27 13:04:41;;;;;;;16.48;1.58;;;22.00;99.90;;;;;;5010428;28;20052;-67
2022/08/27 13:07:06;;;;;;;7.78;1.30;;;21.90;99.90;;;;;;5011843;28;20103;-67
2022/08/27 13:09:37;;;;;;;8.98;1.52;;;21.80;99.90;;;;;;5011821;28;20447;-67
2022/08/27 13:12:13;;;;;;;8.05;1.55;;;21.70;99.90;;;;;;5011724;28;20407;-67